createdAt,value
2022-07-26T00:02:05.531Z,98355.75
2022-07-26T00:04:35.035Z,98360.66
2022-07-26T00:07:03.134Z,98363.16
2022-07-26T00:09:31.210Z,98356.84
2022-07-26T00:11:59.252Z,98360.63
2022-07-26T00:14:27.355Z,98355.97
2022-07-26T00:16:55.456Z,98361.75
2022-07-26T00:19:23.650Z,98361.47
2022-07-26T00:22:13.417Z,98364.22
2022-07-26T00:24:41.523Z,98368.91
2022-07-26T00:27:09.620Z,98376.59
2022-07-26T00:29:37.760Z,98385.56
2022-07-26T00:32:06.298Z,98385.09
2022-07-26T00:34:34.342Z,98385.25
2022-07-26T00:37:03.827Z,98393.28
2022-07-26T00:39:31.875Z,98398.09
2022-07-26T00:42:00.062Z,98401.25
2022-07-26T00:44:37.554Z,98402.56
2022-07-26T00:47:06.422Z,98410.59
2022-07-26T00:49:34.634Z,98412.03
2022-07-26T00:52:04.204Z,98413.19
2022-07-26T00:54:32.582Z,98405.97
2022-07-26T00:57:00.705Z,98422.16
2022-07-26T00:59:28.851Z,98422.16
2022-07-26T01:01:57.094Z,98416.13
2022-07-26T01:04:25.758Z,98428.47
2022-07-26T01:06:54.293Z,98427.00
2022-07-26T01:09:24.217Z,98434.25
2022-07-26T01:11:52.483Z,98436.25
2022-07-26T01:14:20.976Z,98430.16
2022-07-26T01:16:49.428Z,98427.47
2022-07-26T01:19:17.698Z,98437.44
2022-07-26T01:21:49.869Z,98423.72
2022-07-26T01:24:17.962Z,98440.38
2022-07-26T01:26:46.162Z,98427.72
2022-07-26T01:29:14.301Z,98429.25
2022-07-26T01:31:42.432Z,98430.78
2022-07-26T01:34:11.015Z,98439.72
2022-07-26T01:36:39.698Z,98453.94
2022-07-26T01:39:09.360Z,98453.16
2022-07-26T01:41:38.468Z,98459.91
2022-07-26T01:44:09.209Z,98448.34
2022-07-26T01:46:37.496Z,98448.00
2022-07-26T01:49:09.054Z,98442.59
2022-07-26T01:51:37.168Z,98445.94
2022-07-26T01:54:05.706Z,98446.19
2022-07-26T01:56:35.336Z,98448.72
2022-07-26T01:59:03.574Z,98444.63
2022-07-26T02:01:37.912Z,98453.44
2022-07-26T02:04:08.234Z,98449.22
2022-07-26T02:06:37.177Z,98450.34
2022-07-26T02:09:05.938Z,98443.41
2022-07-26T02:11:39.355Z,98423.56
2022-07-26T02:14:07.748Z,98444.59
2022-07-26T02:16:36.107Z,98455.03
2022-07-26T02:19:04.208Z,98445.69
2022-07-26T02:21:32.432Z,98442.19
2022-07-26T02:24:00.460Z,98447.41
2022-07-26T02:26:28.483Z,98445.22
2022-07-26T02:28:57.864Z,98444.59
2022-07-26T02:31:32.150Z,98448.00
2022-07-26T02:34:00.664Z,98448.94
2022-07-26T02:36:28.786Z,98444.59
2022-07-26T02:38:56.816Z,98450.28
2022-07-26T02:41:24.884Z,98429.47
2022-07-26T02:43:52.879Z,98428.41
2022-07-26T02:46:22.345Z,98423.91
2022-07-26T02:48:50.483Z,98421.66
2022-07-26T02:51:19.104Z,98417.63
2022-07-26T02:53:47.185Z,98426.38
2022-07-26T02:56:15.294Z,98414.19
2022-07-26T02:58:43.427Z,98415.56
2022-07-26T03:01:11.619Z,98427.28
2022-07-26T03:03:47.208Z,98430.72
2022-07-26T03:06:18.710Z,98441.84
2022-07-26T03:08:46.930Z,98429.47
2022-07-26T03:11:14.998Z,98440.53
2022-07-26T03:13:43.028Z,98427.84
2022-07-26T03:16:11.114Z,98427.03
2022-07-26T03:18:39.220Z,98429.56
2022-07-26T03:21:09.004Z,98436.13
2022-07-26T03:23:37.339Z,98428.66
2022-07-26T03:26:05.920Z,98436.50
2022-07-26T03:28:36.766Z,98439.91
2022-07-26T03:31:04.911Z,98424.16
2022-07-26T03:33:32.949Z,98425.66
2022-07-26T03:36:00.996Z,98423.03
2022-07-26T03:38:30.454Z,98415.09
2022-07-26T03:41:00.551Z,98415.47
2022-07-26T03:43:28.656Z,98420.44
2022-07-26T03:45:58.539Z,98429.16
2022-07-26T03:48:26.783Z,98430.72
2022-07-26T03:50:54.905Z,98441.19
2022-07-26T03:53:22.902Z,98430.22
2022-07-26T03:56:10.575Z,98431.81
2022-07-26T03:58:38.628Z,98430.69
2022-07-26T04:01:06.726Z,98433.00
2022-07-26T04:03:34.796Z,98428.78
2022-07-26T04:06:03.275Z,98431.13
2022-07-26T04:08:31.604Z,98437.88
2022-07-26T04:11:01.006Z,98438.72
2022-07-26T04:13:29.072Z,98444.56
2022-07-26T04:15:57.126Z,98440.09
2022-07-26T04:18:25.280Z,98438.84
2022-07-26T04:20:53.735Z,98450.69
2022-07-26T04:23:21.826Z,98446.50
2022-07-26T04:25:50.087Z,98450.31
2022-07-26T04:28:19.650Z,98452.66
2022-07-26T04:30:49.830Z,98452.19
2022-07-26T04:33:18.335Z,98438.09
2022-07-26T04:35:46.451Z,98450.88
2022-07-26T04:38:14.472Z,98449.78
2022-07-26T04:40:42.569Z,98451.81
2022-07-26T04:43:15.710Z,98446.88
2022-07-26T04:45:46.286Z,98458.34
2022-07-26T04:48:14.491Z,98462.19
2022-07-26T04:50:42.725Z,98462.03
2022-07-26T04:53:12.912Z,98465.56
2022-07-26T04:55:41.530Z,98458.16
2022-07-26T04:58:10.352Z,98460.38
2022-07-26T05:01:02.793Z,98457.94
2022-07-26T05:03:28.646Z,98464.00
2022-07-26T05:05:56.714Z,98478.78
2022-07-26T05:08:24.802Z,98480.97
2022-07-26T05:10:55.836Z,98481.13
2022-07-26T05:13:30.538Z,98475.22
2022-07-26T05:15:59.215Z,98459.94
2022-07-26T05:18:29.951Z,98477.59
2022-07-26T05:21:00.170Z,98478.22
2022-07-26T05:23:28.297Z,98477.88
2022-07-26T05:25:58.617Z,98485.88
2022-07-26T05:28:26.717Z,98481.50
2022-07-26T05:30:54.924Z,98476.66
2022-07-26T05:33:23.085Z,98472.50
2022-07-26T05:35:52.524Z,98477.41
2022-07-26T05:38:20.700Z,98477.75
2022-07-26T05:40:50.917Z,98477.53
2022-07-26T05:43:22.089Z,98477.28
2022-07-26T05:45:50.246Z,98467.44
2022-07-26T05:48:18.326Z,98467.13
2022-07-26T05:50:47.792Z,98469.75
2022-07-26T05:53:19.392Z,98471.34
2022-07-26T05:55:47.463Z,98473.50
2022-07-26T05:58:17.829Z,98483.72
2022-07-26T06:00:48.605Z,98482.50
2022-07-26T06:03:25.906Z,98478.16
2022-07-26T06:05:55.252Z,98478.44
2022-07-26T06:08:25.055Z,98477.56
2022-07-26T06:10:55.648Z,98481.66
2022-07-26T06:13:24.054Z,98481.13
2022-07-26T06:15:54.465Z,98492.59
2022-07-26T06:18:22.782Z,98478.44
2022-07-26T06:20:51.521Z,98480.97
2022-07-26T06:23:34.336Z,98485.53
2022-07-26T06:26:05.809Z,98480.91
2022-07-26T06:28:34.207Z,98477.44
2022-07-26T06:31:02.454Z,98476.31
2022-07-26T06:33:30.525Z,98486.75
2022-07-26T06:35:58.687Z,98473.59
2022-07-26T06:38:26.748Z,98481.78
2022-07-26T06:40:57.179Z,98483.34
2022-07-26T06:43:26.602Z,98478.75
2022-07-26T06:45:57.081Z,98477.19
2022-07-26T06:48:25.544Z,98471.81
2022-07-26T06:50:54.035Z,98481.31
2022-07-26T06:53:22.094Z,98483.72
2022-07-26T06:55:50.307Z,98478.13
2022-07-26T06:58:18.391Z,98479.34
2022-07-26T07:00:47.889Z,98479.34
2022-07-26T07:03:15.960Z,98482.34
2022-07-26T07:05:49.704Z,98472.44
2022-07-26T07:08:18.499Z,98473.66
2022-07-26T07:10:48.246Z,98475.72
2022-07-26T07:13:18.984Z,98474.25
2022-07-26T07:15:48.932Z,98478.38
2022-07-26T07:18:17.101Z,98478.38
2022-07-26T07:20:45.144Z,98488.09
2022-07-26T07:23:13.192Z,98474.44
2022-07-26T07:25:41.241Z,98474.19
2022-07-26T07:28:13.081Z,98483.53
2022-07-26T07:30:41.171Z,98481.75
2022-07-26T07:33:22.053Z,98489.06
2022-07-26T07:35:51.634Z,98490.47
2022-07-26T07:38:22.396Z,98487.63
2022-07-26T07:40:50.768Z,98488.03
2022-07-26T07:43:18.832Z,98487.06
2022-07-26T07:45:48.487Z,98487.00
2022-07-26T07:48:18.462Z,98486.44
2022-07-26T07:50:46.647Z,98475.06
2022-07-26T07:53:14.730Z,98472.41
2022-07-26T07:55:44.085Z,98479.91
2022-07-26T07:58:15.624Z,98477.66
2022-07-26T08:00:45.657Z,98461.41
2022-07-26T08:03:18.533Z,98475.41
2022-07-26T08:05:49.743Z,98475.97
2022-07-26T08:08:22.555Z,98482.63
2022-07-26T08:10:52.951Z,98477.03
2022-07-26T08:13:21.665Z,98480.78
2022-07-26T08:15:50.280Z,98478.25
2022-07-26T08:18:18.465Z,98486.44
2022-07-26T08:20:51.443Z,98494.66
2022-07-26T08:23:20.252Z,98486.63
2022-07-26T08:25:56.237Z,98499.22
2022-07-26T08:28:46.325Z,98490.56
2022-07-26T08:31:13.933Z,98495.66
2022-07-26T08:33:45.858Z,98492.28
2022-07-26T08:36:16.636Z,98492.38
2022-07-26T08:38:44.825Z,98486.66
2022-07-26T08:41:15.698Z,98486.97
2022-07-26T08:43:45.282Z,98495.50
2022-07-26T08:46:25.407Z,98501.50
2022-07-26T08:48:55.099Z,98504.69
2022-07-26T08:51:25.272Z,98508.50
2022-07-26T08:53:58.026Z,98511.09
2022-07-26T08:56:32.076Z,98515.38
2022-07-26T08:59:00.125Z,98514.59
2022-07-26T09:01:28.281Z,98519.19
2022-07-26T09:03:56.595Z,98522.56
2022-07-26T09:06:28.191Z,98509.31
2022-07-26T09:09:10.612Z,98526.13
2022-07-26T09:11:39.101Z,98518.47
2022-07-26T09:14:07.434Z,98522.41
2022-07-26T09:16:39.671Z,98523.63
2022-07-26T09:19:19.178Z,98521.28
2022-07-26T09:21:49.047Z,98536.00
2022-07-26T09:24:30.447Z,98537.47
2022-07-26T09:26:58.995Z,98526.66
2022-07-26T09:29:28.379Z,98529.81
2022-07-26T09:32:10.674Z,98530.50
2022-07-26T09:34:51.760Z,98530.84
2022-07-26T09:37:33.260Z,98528.47
2022-07-26T09:40:02.164Z,98527.41
2022-07-26T09:42:30.343Z,98538.06
2022-07-26T09:44:59.005Z,98531.72
2022-07-26T09:47:36.904Z,98530.94
2022-07-26T09:50:11.945Z,98528.56
2022-07-26T09:52:41.662Z,98535.22
2022-07-26T09:55:10.547Z,98534.59
2022-07-26T09:57:40.979Z,98550.38
2022-07-26T10:00:09.589Z,98535.13
2022-07-26T10:02:37.830Z,98538.50
2022-07-26T10:05:06.906Z,98542.31
2022-07-26T10:07:35.523Z,98541.69
2022-07-26T10:10:08.012Z,98539.09
2022-07-26T10:12:36.667Z,98530.94
2022-07-26T10:15:05.033Z,98543.69
2022-07-26T10:17:50.786Z,98548.47
2022-07-26T10:20:40.984Z,98547.47
2022-07-26T10:23:37.837Z,98541.47
2022-07-26T10:26:09.805Z,98514.53
2022-07-26T10:28:38.642Z,98531.56
2022-07-26T10:31:26.269Z,98544.59
2022-07-26T10:33:57.560Z,98544.75
2022-07-26T10:36:33.598Z,98542.00
2022-07-26T10:39:05.843Z,98549.47
2022-07-26T10:41:39.099Z,98545.72
2022-07-26T10:44:22.038Z,98543.66
2022-07-26T10:46:57.926Z,98543.19
2022-07-26T10:49:33.587Z,98551.97
2022-07-26T10:52:15.587Z,98550.78
2022-07-26T10:55:18.289Z,98550.72
2022-07-26T10:57:49.179Z,98554.75
2022-07-26T11:00:21.980Z,98555.06
2022-07-26T11:02:53.707Z,98545.25
2022-07-26T11:05:28.669Z,98546.03
2022-07-26T11:07:58.686Z,98536.56
2022-07-26T11:10:27.877Z,98542.56
2022-07-26T11:13:05.367Z,98541.81
2022-07-26T11:15:34.120Z,98539.41
2022-07-26T11:18:12.638Z,98536.53
2022-07-26T11:20:41.163Z,98538.03
2022-07-26T11:23:23.076Z,98531.03
2022-07-26T11:26:11.418Z,98530.59
2022-07-26T11:29:00.442Z,98536.47
2022-07-26T11:31:51.005Z,98534.19
2022-07-26T11:34:27.802Z,98525.75
2022-07-26T11:36:56.791Z,98517.53
2022-07-26T11:39:25.744Z,98513.34
2022-07-26T11:41:58.220Z,98518.91
2022-07-26T11:44:28.051Z,98514.03
2022-07-26T11:46:58.419Z,98501.94
2022-07-26T11:49:52.131Z,98502.34
2022-07-26T11:52:25.005Z,98501.13
2022-07-26T11:54:54.456Z,98511.13
2022-07-26T11:57:22.758Z,98503.28
2022-07-26T11:59:51.461Z,98504.41
2022-07-26T12:02:23.365Z,98508.84
2022-07-26T12:05:11.755Z,98501.75
2022-07-26T12:07:40.031Z,98497.97
2022-07-26T12:10:08.682Z,98510.28
2022-07-26T12:12:36.826Z,98495.75
2022-07-26T12:15:05.742Z,98492.59
2022-07-26T12:17:39.545Z,98498.97
2022-07-26T12:20:14.752Z,98500.91
2022-07-26T12:22:54.237Z,98494.91
2022-07-26T12:25:25.904Z,98493.75
2022-07-26T12:27:54.133Z,98499.47
2022-07-26T12:30:22.262Z,98487.28
2022-07-26T12:32:54.409Z,98488.47
2022-07-26T12:35:32.157Z,98484.72
2022-07-26T12:38:00.802Z,98489.75
2022-07-26T12:40:29.622Z,98491.19
2022-07-26T12:43:02.182Z,98486.16
2022-07-26T12:45:31.677Z,98486.94
2022-07-26T12:48:02.125Z,98481.31
2022-07-26T12:50:31.372Z,98492.06
2022-07-26T12:53:00.862Z,98491.72
2022-07-26T12:55:29.010Z,98484.44
2022-07-26T12:57:57.294Z,98455.81
2022-07-26T13:00:25.498Z,98473.88
2022-07-26T13:02:55.177Z,98478.53
2022-07-26T13:05:25.117Z,98471.00
2022-07-26T13:07:53.345Z,98470.53
2022-07-26T13:10:33.070Z,98477.88
2022-07-26T13:13:02.667Z,98478.38
2022-07-26T13:15:36.367Z,98469.88
2022-07-26T13:18:06.658Z,98464.81
2022-07-26T13:20:37.024Z,98468.78
2022-07-26T13:23:05.218Z,98465.44
2022-07-26T13:25:38.512Z,98461.63
2022-07-26T13:28:10.933Z,98464.97
2022-07-26T13:30:42.887Z,98462.44
2022-07-26T13:33:11.506Z,98456.56
2022-07-26T13:35:43.505Z,98459.47
2022-07-26T13:38:14.706Z,98452.41
2022-07-26T13:40:42.821Z,98452.88
2022-07-26T13:43:10.916Z,98458.84
2022-07-26T13:45:39.051Z,98448.56
2022-07-26T13:48:07.515Z,98439.53
2022-07-26T13:50:35.590Z,98440.75
2022-07-26T13:53:04.995Z,98446.88
2022-07-26T13:55:33.147Z,98445.63
2022-07-26T13:58:03.123Z,98442.84
2022-07-26T14:00:35.842Z,98439.28
2022-07-26T14:03:04.155Z,98431.59
2022-07-26T14:05:32.302Z,98436.16
2022-07-26T14:08:00.377Z,98424.34
2022-07-26T14:10:29.813Z,98437.81
2022-07-26T14:12:57.920Z,98437.38
2022-07-26T14:15:26.007Z,98441.09
2022-07-26T14:17:54.163Z,98447.88
2022-07-26T14:20:22.627Z,98437.97
2022-07-26T14:22:53.915Z,98435.94
2022-07-26T14:25:22.291Z,98438.94
2022-07-26T14:27:52.627Z,98445.47
2022-07-26T14:30:20.945Z,98438.88
2022-07-26T14:32:49.488Z,98438.75
2022-07-26T14:35:18.961Z,98443.03
2022-07-26T14:37:47.436Z,98453.66
2022-07-26T14:40:18.251Z,98441.69
2022-07-26T14:42:46.967Z,98439.97
2022-07-26T14:45:16.704Z,98441.44
2022-07-26T14:47:45.244Z,98444.13
2022-07-26T14:50:14.256Z,98437.91
2022-07-26T14:52:43.378Z,98440.94
2022-07-26T14:55:11.529Z,98437.59
2022-07-26T14:57:40.350Z,98433.44
2022-07-26T15:00:10.401Z,98431.44
2022-07-26T15:02:40.843Z,98440.81
2022-07-26T15:05:11.306Z,98445.97
2022-07-26T15:07:39.601Z,98436.38
2022-07-26T15:10:08.642Z,98434.84
2022-07-26T15:12:37.136Z,98428.97
2022-07-26T15:15:05.617Z,98425.19
2022-07-26T15:17:33.913Z,98426.78
2022-07-26T15:20:03.908Z,98421.84
2022-07-26T15:22:32.043Z,98416.75
2022-07-26T15:25:00.145Z,98398.22
2022-07-26T15:27:28.226Z,98414.34
2022-07-26T15:30:01.042Z,98422.34
2022-07-26T15:32:31.473Z,98423.88
2022-07-26T15:34:59.649Z,98415.50
2022-07-26T15:37:29.292Z,98410.13
2022-07-26T15:39:57.562Z,98410.34
2022-07-26T15:42:25.671Z,98405.78
2022-07-26T15:44:56.017Z,98419.38
2022-07-26T15:47:52.266Z,98414.84
2022-07-26T15:50:14.045Z,98410.72
2022-07-26T15:52:45.401Z,98420.19
2022-07-26T15:55:13.958Z,98410.91
2022-07-26T15:57:42.126Z,98413.47
2022-07-26T16:00:12.161Z,98410.31
2022-07-26T16:02:41.001Z,98414.91
2022-07-26T16:05:10.373Z,98415.69
2022-07-26T16:07:38.761Z,98414.00
2022-07-26T16:10:08.952Z,98411.34
2022-07-26T16:12:37.146Z,98406.97
2022-07-26T16:15:05.599Z,98409.72
2022-07-26T16:17:36.062Z,98400.53
2022-07-26T16:20:04.442Z,98404.59
2022-07-26T16:22:32.998Z,98400.88
2022-07-26T16:25:01.118Z,98395.28
2022-07-26T16:27:30.534Z,98397.31
2022-07-26T16:29:58.691Z,98403.66
2022-07-26T16:32:26.870Z,98397.94
2022-07-26T16:34:55.086Z,98398.94
2022-07-26T16:37:23.306Z,98394.34
2022-07-26T16:39:55.479Z,98377.28
2022-07-26T16:42:23.592Z,98399.75
2022-07-26T16:44:53.192Z,98390.88
2022-07-26T16:47:21.274Z,98399.06
2022-07-26T16:49:51.489Z,98405.06
2022-07-26T16:52:19.548Z,98399.34
2022-07-26T16:54:47.670Z,98394.59
2022-07-26T16:57:15.697Z,98399.63
2022-07-26T16:59:43.755Z,98399.88
2022-07-26T17:02:13.264Z,98393.78
2022-07-26T17:04:41.408Z,98395.25
2022-07-26T17:07:27.086Z,98391.91
2022-07-26T17:09:55.599Z,98391.59
2022-07-26T17:12:24.064Z,98391.00
2022-07-26T17:14:52.822Z,98386.28
2022-07-26T17:17:22.287Z,98388.69
2022-07-26T17:19:50.395Z,98379.41
2022-07-26T17:22:18.576Z,98383.47
2022-07-26T17:24:47.056Z,98393.81
2022-07-26T17:27:15.157Z,98363.13
2022-07-26T17:29:45.581Z,98384.44
2022-07-26T17:32:13.671Z,98381.22
2022-07-26T17:34:43.109Z,98382.38
2022-07-26T17:37:12.399Z,98378.38
2022-07-26T17:39:52.771Z,98376.97
2022-07-26T17:42:34.991Z,98382.66
2022-07-26T17:45:03.603Z,98391.78
2022-07-26T17:47:31.737Z,98388.19
2022-07-26T17:50:35.868Z,98385.09
2022-07-26T17:52:52.553Z,98377.31
2022-07-26T17:55:21.086Z,98380.88
2022-07-26T17:57:50.087Z,98383.47
2022-07-26T18:00:19.693Z,98381.28
2022-07-26T18:02:47.872Z,98376.91
2022-07-26T18:05:18.936Z,98378.03
2022-07-26T18:07:47.089Z,98375.41
2022-07-26T18:10:15.340Z,98377.69
2022-07-26T18:12:43.457Z,98381.28
2022-07-26T18:15:12.039Z,98379.09
2022-07-26T18:17:40.145Z,98375.38
2022-07-26T18:20:08.717Z,98369.22
2022-07-26T18:22:38.237Z,98375.84
2022-07-26T18:25:06.769Z,98375.19
2022-07-26T18:27:35.631Z,98369.63
2022-07-26T18:30:03.821Z,98376.16
2022-07-26T18:32:31.952Z,98377.50
2022-07-26T18:34:59.972Z,98376.72
2022-07-26T18:37:28.064Z,98379.81
2022-07-26T18:39:59.601Z,98382.88
2022-07-26T18:42:27.728Z,98380.50
2022-07-26T18:44:55.825Z,98387.25
2022-07-26T18:47:24.081Z,98385.69
2022-07-26T18:49:52.206Z,98382.81
2022-07-26T18:52:28.843Z,98378.09
2022-07-26T18:55:06.543Z,98385.63
2022-07-26T18:57:34.839Z,98387.44
2022-07-26T19:00:03.232Z,98392.81
2022-07-26T19:02:31.290Z,98389.75
2022-07-26T19:05:01.676Z,98391.91
2022-07-26T19:07:30.985Z,98395.59
2022-07-26T19:09:59.377Z,98395.81
2022-07-26T19:12:29.315Z,98394.59
2022-07-26T19:14:59.768Z,98394.59
2022-07-26T19:17:27.868Z,98396.34
2022-07-26T19:19:58.323Z,98401.63
2022-07-26T19:22:26.598Z,98402.53
2022-07-26T19:24:54.693Z,98404.38
2022-07-26T19:27:25.267Z,98409.59
2022-07-26T19:29:56.843Z,98413.88
2022-07-26T19:32:28.029Z,98413.25
2022-07-26T19:34:58.481Z,98415.38
2022-07-26T19:37:26.534Z,98420.59
2022-07-26T19:39:55.659Z,98430.69
2022-07-26T19:42:23.862Z,98432.91
2022-07-26T19:44:51.971Z,98432.84
2022-07-26T19:47:21.452Z,98443.63
2022-07-26T19:49:49.553Z,98438.16
2022-07-26T19:52:17.679Z,98435.00
2022-07-26T19:54:45.828Z,98437.97
2022-07-26T19:57:14.121Z,98445.63
2022-07-26T19:59:42.168Z,98453.25
2022-07-26T20:02:10.333Z,98454.78
2022-07-26T20:04:45.444Z,98459.38
2022-07-26T20:07:15.970Z,98456.66
2022-07-26T20:09:44.066Z,98458.09
2022-07-26T20:12:12.185Z,98461.69
2022-07-26T20:14:40.311Z,98461.09
2022-07-26T20:17:11.921Z,98457.97
2022-07-26T20:19:42.794Z,98461.13
2022-07-26T20:22:13.272Z,98468.72
2022-07-26T20:24:41.413Z,98461.94
2022-07-26T20:27:09.850Z,98454.97
2022-07-26T20:29:37.969Z,98456.56
2022-07-26T20:32:06.886Z,98460.75
2022-07-26T20:34:35.099Z,98457.53
2022-07-26T20:37:04.500Z,98449.34
2022-07-26T20:39:35.950Z,98456.94
2022-07-26T20:42:04.114Z,98457.47
2022-07-26T20:44:32.587Z,98464.44
2022-07-26T20:47:05.066Z,98460.88
2022-07-26T20:49:36.592Z,98457.09
2022-07-26T20:52:06.503Z,98455.56
2022-07-26T20:54:34.571Z,98462.97
2022-07-26T20:57:04.417Z,98459.25
2022-07-26T20:59:34.939Z,98458.88
2022-07-26T21:02:03.076Z,98465.03
2022-07-26T21:04:33.421Z,98466.38
2022-07-26T21:07:01.488Z,98464.69
2022-07-26T21:09:30.904Z,98466.81
2022-07-26T21:11:59.001Z,98460.31
2022-07-26T21:14:27.405Z,98464.97
2022-07-26T21:16:55.562Z,98463.81
2022-07-26T21:19:23.729Z,98456.69
2022-07-26T21:21:53.678Z,98461.59
2022-07-26T21:24:21.762Z,98470.53
2022-07-26T21:26:51.360Z,98462.56
2022-07-26T21:29:19.524Z,98467.25
2022-07-26T21:31:47.677Z,98475.22
2022-07-26T21:34:15.785Z,98473.00
2022-07-26T21:36:43.905Z,98471.03
2022-07-26T21:39:14.812Z,98472.44
2022-07-26T21:41:45.172Z,98471.91
2022-07-26T21:44:15.016Z,98472.06
2022-07-26T21:46:48.415Z,98473.88
2022-07-26T21:49:18.255Z,98467.38
2022-07-26T21:51:46.336Z,98477.47
2022-07-26T21:54:14.473Z,98472.34
2022-07-26T21:56:42.556Z,98472.63
2022-07-26T22:02:38.717Z,98471.06
2022-07-26T22:05:27.400Z,98465.13
2022-07-26T22:07:55.903Z,98477.22
2022-07-26T22:10:24.539Z,98472.06
2022-07-26T22:12:52.560Z,98474.13
2022-07-26T22:15:20.818Z,98476.78
2022-07-26T22:17:50.402Z,98480.81
2022-07-26T22:20:18.599Z,98469.50
2022-07-26T22:22:46.619Z,98482.31
2022-07-26T22:25:15.026Z,98480.91
2022-07-26T22:27:43.119Z,98479.94
2022-07-26T22:30:11.740Z,98480.72
2022-07-26T22:32:39.772Z,98471.72
2022-07-26T22:35:09.785Z,98469.50
2022-07-26T22:37:37.898Z,98475.03
2022-07-26T22:40:06.645Z,98451.00
2022-07-26T22:42:34.674Z,98479.91
2022-07-26T22:45:03.316Z,98478.84
2022-07-26T22:47:38.087Z,98470.50
2022-07-26T22:50:16.347Z,98470.69
2022-07-26T22:52:45.998Z,98471.81
2022-07-26T22:55:16.352Z,98474.84
2022-07-26T22:57:45.095Z,98478.31
2022-07-26T23:00:14.938Z,98481.75
2022-07-26T23:02:43.036Z,98479.34
2022-07-26T23:05:11.563Z,98475.59
2022-07-26T23:07:41.073Z,98483.47
2022-07-26T23:10:11.788Z,98490.72
2022-07-26T23:12:39.993Z,98485.69
2022-07-26T23:15:11.046Z,98487.34
2022-07-26T23:17:39.258Z,98486.28
2022-07-26T23:20:09.019Z,98483.03
2022-07-26T23:22:37.066Z,98486.28
2022-07-26T23:25:06.978Z,98491.84
2022-07-26T23:27:35.123Z,98488.00
2022-07-26T23:30:03.220Z,98501.03
2022-07-26T23:32:33.636Z,98487.53
2022-07-26T23:35:01.642Z,98491.38
2022-07-26T23:37:29.668Z,98486.84
2022-07-26T23:39:57.720Z,98490.34
2022-07-26T23:42:27.111Z,98489.00
2022-07-26T23:44:55.207Z,98487.19
2022-07-26T23:47:23.332Z,98485.50
2022-07-26T23:49:51.473Z,98497.91
2022-07-26T23:52:19.555Z,98492.00
2022-07-26T23:54:47.591Z,98488.00
2022-07-26T23:57:15.600Z,98488.25
2022-07-26T23:59:45.352Z,98481.03
